sensor_id;sensor_type;location;lat;lon;timestamp;pressure;altitude;pressure_sealevel;temperature;humidity
58622;BME280;44389;51.578;5.456;2023-07-24T00:00:01;100346.53;;;16.51;100.00
58622;BME280;44389;51.578;5.456;2023-07-24T00:02:26;100349.16;;;16.50;100.00
58622;BME280;44389;51.578;5.456;2023-07-24T00:04:52;100343.97;;;16.53;100.00
58622;BME280;44389;51.578;5.456;2023-07-24T00:07:17;100340.47;;;16.54;100.00
58622;BME280;44389;51.578;5.456;2023-07-24T00:09:42;100333.56;;;16.53;100.00
58622;BME280;44389;51.578;5.456;2023-07-24T00:12:08;100337.00;;;16.55;100.00
58622;BME280;44389;51.578;5.456;2023-07-24T00:14:33;100324.00;;;16.55;100.00
58622;BME280;44389;51.578;5.456;2023-07-24T00:16:58;100328.34;;;16.56;100.00
58622;BME280;44389;51.578;5.456;2023-07-24T00:19:24;100328.34;;;16.56;100.00
58622;BME280;44389;51.578;5.456;2023-07-24T00:21:49;100323.97;;;16.56;100.00
58622;BME280;44389;51.578;5.456;2023-07-24T00:24:14;100322.25;;;16.54;100.00
58622;BME280;44389;51.578;5.456;2023-07-24T00:26:40;100308.41;;;16.52;100.00
58622;BME280;44389;51.578;5.456;2023-07-24T00:29:05;100306.69;;;16.49;100.00
58622;BME280;44389;51.578;5.456;2023-07-24T00:31:30;100304.06;;;16.51;100.00
58622;BME280;44389;51.578;5.456;2023-07-24T00:33:55;100299.75;;;16.53;100.00
58622;BME280;44389;51.578;5.456;2023-07-24T00:36:21;100296.25;;;16.52;100.00
58622;BME280;44389;51.578;5.456;2023-07-24T00:38:46;100298.84;;;16.54;100.00
58622;BME280;44389;51.578;5.456;2023-07-24T00:41:11;100298.84;;;16.54;100.00
58622;BME280;44389;51.578;5.456;2023-07-24T00:43:37;100303.19;;;16.55;100.00
58622;BME280;44389;51.578;5.456;2023-07-24T00:46:02;100305.78;;;16.55;100.00
58622;BME280;44389;51.578;5.456;2023-07-24T00:48:28;100288.44;;;16.54;100.00
58622;BME280;44389;51.578;5.456;2023-07-24T00:50:54;100281.50;;;16.51;100.00
58622;BME280;44389;51.578;5.456;2023-07-24T00:53:19;100282.41;;;16.50;100.00
58622;BME280;44389;51.578;5.456;2023-07-24T00:55:45;100278.91;;;16.51;100.00
58622;BME280;44389;51.578;5.456;2023-07-24T00:58:11;100278.06;;;16.51;100.00
58622;BME280;44389;51.578;5.456;2023-07-24T01:00:40;100278.06;;;16.51;100.00
58622;BME280;44389;51.578;5.456;2023-07-24T01:03:05;100278.94;;;16.50;100.00
58622;BME280;44389;51.578;5.456;2023-07-24T01:05:31;100285.00;;;16.52;100.00
58622;BME280;44389;51.578;5.456;2023-07-24T01:07:57;100283.25;;;16.51;100.00
58622;BME280;44389;51.578;5.456;2023-07-24T01:10:22;100271.13;;;16.50;100.00
58622;BME280;44389;51.578;5.456;2023-07-24T01:15:42;100265.06;;;16.49;100.00
58622;BME280;44389;51.578;5.456;2023-07-24T01:18:10;100256.41;;;16.50;100.00
58622;BME280;44389;51.578;5.456;2023-07-24T01:20:38;100257.25;;;16.49;100.00
58622;BME280;44389;51.578;5.456;2023-07-24T01:26:01;100251.19;;;16.52;100.00
58622;BME280;44389;51.578;5.456;2023-07-24T01:28:30;100258.09;;;16.51;100.00
58622;BME280;44389;51.578;5.456;2023-07-24T01:30:56;100261.59;;;16.52;100.00
58622;BME280;44389;51.578;5.456;2023-07-24T01:33:22;100244.25;;;16.51;100.00
58622;BME280;44389;51.578;5.456;2023-07-24T01:35:53;100249.44;;;16.52;100.00
58622;BME280;44389;51.578;5.456;2023-07-24T01:38:21;100243.38;;;16.52;100.00
58622;BME280;44389;51.578;5.456;2023-07-24T01:40:47;100238.19;;;16.52;100.00
58622;BME280;44389;51.578;5.456;2023-07-24T01:43:14;100242.50;;;16.53;100.00
58622;BME280;44389;51.578;5.456;2023-07-24T01:45:39;100246.81;;;16.54;100.00
58622;BME280;44389;51.578;5.456;2023-07-24T01:48:05;100241.63;;;16.55;100.00
58622;BME280;44389;51.578;5.456;2023-07-24T01:50:31;100245.97;;;16.53;100.00
58622;BME280;44389;51.578;5.456;2023-07-24T01:52:56;100229.50;;;16.53;100.00
58622;BME280;44389;51.578;5.456;2023-07-24T01:55:21;100216.47;;;16.51;100.00
58622;BME280;44389;51.578;5.456;2023-07-24T01:57:47;100208.69;;;16.50;100.00
58622;BME280;44389;51.578;5.456;2023-07-24T02:00:12;100212.16;;;16.49;100.00
58622;BME280;44389;51.578;5.456;2023-07-24T02:02:37;100213.06;;;16.48;100.00
58622;BME280;44389;51.578;5.456;2023-07-24T02:05:03;100205.25;;;16.48;100.00
58622;BME280;44389;51.578;5.456;2023-07-24T02:07:28;100219.13;;;16.46;100.00
58622;BME280;44389;51.578;5.456;2023-07-24T02:09:54;100209.59;;;16.45;100.00
58622;BME280;44389;51.578;5.456;2023-07-24T02:12:19;100208.72;;;16.48;100.00
58622;BME280;44389;51.578;5.456;2023-07-24T02:14:45;100201.78;;;16.47;100.00
58622;BME280;44389;51.578;5.456;2023-07-24T02:17:13;100199.16;;;16.47;100.00
58622;BME280;44389;51.578;5.456;2023-07-24T02:19:38;100192.25;;;16.48;100.00
58622;BME280;44389;51.578;5.456;2023-07-24T02:22:03;100200.06;;;16.48;100.00
58622;BME280;44389;51.578;5.456;2023-07-24T02:24:29;100194.84;;;16.48;100.00
58622;BME280;44389;51.578;5.456;2023-07-24T02:26:54;100198.31;;;16.46;100.00
58622;BME280;44389;51.578;5.456;2023-07-24T02:29:19;100204.38;;;16.47;100.00
58622;BME280;44389;51.578;5.456;2023-07-24T02:31:45;100194.84;;;16.48;100.00
58622;BME280;44389;51.578;5.456;2023-07-24T02:34:10;100193.13;;;16.46;100.00
58622;BME280;44389;51.578;5.456;2023-07-24T02:36:35;100189.66;;;16.44;100.00
58622;BME280;44389;51.578;5.456;2023-07-24T02:39:01;100194.84;;;16.44;100.00
58622;BME280;44389;51.578;5.456;2023-07-24T02:41:26;100196.59;;;16.45;100.00
58622;BME280;44389;51.578;5.456;2023-07-24T02:43:52;100191.41;;;16.42;100.00
58622;BME280;44389;51.578;5.456;2023-07-24T02:46:17;100199.19;;;16.44;100.00
58622;BME280;44389;51.578;5.456;2023-07-24T02:48:42;100208.72;;;16.43;100.00
58622;BME280;44389;51.578;5.456;2023-07-24T02:51:08;100215.66;;;16.44;100.00
58622;BME280;44389;51.578;5.456;2023-07-24T02:53:33;100200.06;;;16.44;100.00
58622;BME280;44389;51.578;5.456;2023-07-24T02:56:01;100185.31;;;16.43;100.00
58622;BME280;44389;51.578;5.456;2023-07-24T02:58:26;100173.19;;;16.44;100.00
58622;BME280;44389;51.578;5.456;2023-07-24T03:00:51;100175.81;;;16.42;100.00
58622;BME280;44389;51.578;5.456;2023-07-24T03:03:17;100182.72;;;16.43;100.00
58622;BME280;44389;51.578;5.456;2023-07-24T03:05:42;100194.00;;;16.42;100.00
58622;BME280;44389;51.578;5.456;2023-07-24T03:08:07;100193.13;;;16.42;100.00
58622;BME280;44389;51.578;5.456;2023-07-24T03:10:33;100182.75;;;16.39;100.00
58622;BME280;44389;51.578;5.456;2023-07-24T03:12:58;100173.25;;;16.32;100.00
58622;BME280;44389;51.578;5.456;2023-07-24T03:15:23;100170.69;;;16.24;100.00
58622;BME280;44389;51.578;5.456;2023-07-24T03:17:48;100173.28;;;16.18;100.00
58622;BME280;44389;51.578;5.456;2023-07-24T03:20:17;100180.28;;;16.14;100.00
58622;BME280;44389;51.578;5.456;2023-07-24T03:22:43;100181.16;;;16.07;100.00
58622;BME280;44389;51.578;5.456;2023-07-24T03:25:08;100184.66;;;16.01;100.00
58622;BME280;44389;51.578;5.456;2023-07-24T03:27:34;100193.31;;;15.97;100.00
58622;BME280;44389;51.578;5.456;2023-07-24T03:29:59;100181.22;;;15.90;100.00
58622;BME280;44389;51.578;5.456;2023-07-24T03:32:24;100175.16;;;15.86;100.00
58622;BME280;44389;51.578;5.456;2023-07-24T03:34:50;100172.59;;;15.82;100.00
58622;BME280;44389;51.578;5.456;2023-07-24T03:37:15;100169.97;;;15.77;100.00
58622;BME280;44389;51.578;5.456;2023-07-24T03:39:41;100168.22;;;15.74;100.00
58622;BME280;44389;51.578;5.456;2023-07-24T03:42:06;100173.44;;;15.70;100.00
58622;BME280;44389;51.578;5.456;2023-07-24T03:44:31;100170.84;;;15.71;100.00
58622;BME280;44389;51.578;5.456;2023-07-24T03:46:56;100163.91;;;15.66;100.00
58622;BME280;44389;51.578;5.456;2023-07-24T03:49:22;100162.19;;;15.66;100.00
58622;BME280;44389;51.578;5.456;2023-07-24T03:51:48;100167.41;;;15.66;100.00
58622;BME280;44389;51.578;5.456;2023-07-24T03:54:13;100163.06;;;15.62;100.00
58622;BME280;44389;51.578;5.456;2023-07-24T03:56:38;100165.66;;;15.62;100.00
58622;BME280;44389;51.578;5.456;2023-07-24T03:59:05;100170.00;;;15.61;100.00
58622;BME280;44389;51.578;5.456;2023-07-24T04:01:31;100167.41;;;15.61;100.00
58622;BME280;44389;51.578;5.456;2023-07-24T04:03:56;100169.13;;;15.61;100.00
58622;BME280;44389;51.578;5.456;2023-07-24T04:06:23;100160.47;;;15.62;100.00
58622;BME280;44389;51.578;5.456;2023-07-24T04:08:48;100166.53;;;15.59;100.00
58622;BME280;44389;51.578;5.456;2023-07-24T04:11:13;100170.00;;;15.58;100.00
58622;BME280;44389;51.578;5.456;2023-07-24T04:13:38;100174.31;;;15.58;100.00
58622;BME280;44389;51.578;5.456;2023-07-24T04:16:04;100182.13;;;15.56;100.00
58622;BME280;44389;51.578;5.456;2023-07-24T04:18:29;100180.38;;;15.57;100.00
58622;BME280;44389;51.578;5.456;2023-07-24T04:20:56;100188.19;;;15.54;100.00
58622;BME280;44389;51.578;5.456;2023-07-24T04:23:21;100186.47;;;15.51;100.00
58622;BME280;44389;51.578;5.456;2023-07-24T04:25:49;100181.25;;;15.46;100.00
58622;BME280;44389;51.578;5.456;2023-07-24T04:28:14;100188.16;;;15.57;100.00
58622;BME280;44389;51.578;5.456;2023-07-24T04:30:40;100191.66;;;15.46;100.00
58622;BME280;44389;51.578;5.456;2023-07-24T04:33:05;100193.38;;;15.47;100.00
58622;BME280;44389;51.578;5.456;2023-07-24T04:35:30;100190.78;;;15.46;100.00
58622;BME280;44389;51.578;5.456;2023-07-24T04:37:55;100184.72;;;15.42;100.00
58622;BME280;44389;51.578;5.456;2023-07-24T04:40:22;100191.69;;;15.40;100.00
58622;BME280;44389;51.578;5.456;2023-07-24T04:42:47;100192.53;;;15.31;100.00
58622;BME280;44389;51.578;5.456;2023-07-24T04:45:13;100197.72;;;15.28;100.00
58622;BME280;44389;51.578;5.456;2023-07-24T04:47:38;100195.97;;;15.26;100.00
58622;BME280;44389;51.578;5.456;2023-07-24T04:50:04;100189.06;;;15.23;100.00
58622;BME280;44389;51.578;5.456;2023-07-24T04:52:30;100186.47;;;15.20;100.00
58622;BME280;44389;51.578;5.456;2023-07-24T04:54:55;100178.69;;;15.19;100.00
58622;BME280;44389;51.578;5.456;2023-07-24T04:57:20;100185.63;;;15.13;100.00
58622;BME280;44389;51.578;5.456;2023-07-24T04:59:45;100188.22;;;15.13;100.00
58622;BME280;44389;51.578;5.456;2023-07-24T05:02:11;100193.38;;;15.10;100.00
58622;BME280;44389;51.578;5.456;2023-07-24T05:04:37;100195.13;;;15.08;100.00
58622;BME280;44389;51.578;5.456;2023-07-24T05:07:02;100196.00;;;15.12;100.00
58622;BME280;44389;51.578;5.456;2023-07-24T05:09:27;100189.94;;;15.11;100.00
58622;BME280;44389;51.578;5.456;2023-07-24T05:11:53;100190.81;;;15.12;100.00
58622;BME280;44389;51.578;5.456;2023-07-24T05:14:18;100187.31;;;15.21;100.00
58622;BME280;44389;51.578;5.456;2023-07-24T05:16:43;100193.41;;;15.20;100.00
58622;BME280;44389;51.578;5.456;2023-07-24T05:19:09;100193.41;;;15.20;100.00
58622;BME280;44389;51.578;5.456;2023-07-24T05:21:34;100201.19;;;15.21;100.00
58622;BME280;44389;51.578;5.456;2023-07-24T05:23:59;100196.00;;;15.21;100.00
58622;BME280;44389;51.578;5.456;2023-07-24T05:26:25;100205.50;;;15.19;100.00
58622;BME280;44389;51.578;5.456;2023-07-24T05:28:53;100207.22;;;15.15;100.00
58622;BME280;44389;51.578;5.456;2023-07-24T05:31:18;100202.03;;;15.15;100.00
58622;BME280;44389;51.578;5.456;2023-07-24T05:33:44;100201.19;;;15.17;100.00
58622;BME280;44389;51.578;5.456;2023-07-24T05:36:09;100198.59;;;15.13;100.00
58622;BME280;44389;51.578;5.456;2023-07-24T05:38:34;100207.25;;;15.19;100.00
58622;BME280;44389;51.578;5.456;2023-07-24T05:41:01;100204.66;;;15.19;100.00
58622;BME280;44389;51.578;5.456;2023-07-24T05:43:28;100205.50;;;15.19;100.00
58622;BME280;44389;51.578;5.456;2023-07-24T05:45:54;100210.72;;;15.24;100.00
58622;BME280;44389;51.578;5.456;2023-07-24T05:48:21;100210.72;;;15.24;100.00
58622;BME280;44389;51.578;5.456;2023-07-24T05:50:46;100220.22;;;15.28;100.00
58622;BME280;44389;51.578;5.456;2023-07-24T05:53:12;100216.78;;;15.27;100.00
58622;BME280;44389;51.578;5.456;2023-07-24T05:55:38;100214.19;;;15.29;100.00
58622;BME280;44389;51.578;5.456;2023-07-24T05:58:03;100222.81;;;15.31;100.00
58622;BME280;44389;51.578;5.456;2023-07-24T06:00:29;100216.78;;;15.35;100.00
58622;BME280;44389;51.578;5.456;2023-07-24T06:02:54;100220.22;;;15.37;100.00
58622;BME280;44389;51.578;5.456;2023-07-24T06:05:20;100226.28;;;15.41;100.00
58622;BME280;44389;51.578;5.456;2023-07-24T06:07:46;100222.84;;;15.40;100.00
58622;BME280;44389;51.578;5.456;2023-07-24T06:10:11;100224.56;;;15.44;100.00
58622;BME280;44389;51.578;5.456;2023-07-24T06:12:37;100213.31;;;15.47;100.00
58622;BME280;44389;51.578;5.456;2023-07-24T06:15:02;100224.53;;;15.55;100.00
58622;BME280;44389;51.578;5.456;2023-07-24T06:17:28;100229.75;;;15.66;100.00
58622;BME280;44389;51.578;5.456;2023-07-24T06:19:53;100233.19;;;15.74;100.00
58622;BME280;44389;51.578;5.456;2023-07-24T06:22:19;100235.78;;;15.79;100.00
58622;BME280;44389;51.578;5.456;2023-07-24T06:24:44;100228.88;;;15.84;100.00
58622;BME280;44389;51.578;5.456;2023-07-24T06:27:09;100224.53;;;15.91;100.00
58622;BME280;44389;51.578;5.456;2023-07-24T06:29:35;100224.47;;;16.03;100.00
58622;BME280;44389;51.578;5.456;2023-07-24T06:32:00;100230.50;;;16.15;100.00
58622;BME280;44389;51.578;5.456;2023-07-24T06:34:25;100223.53;;;16.23;100.00
58622;BME280;44389;51.578;5.456;2023-07-24T06:36:51;100226.16;;;16.26;100.00
58622;BME280;44389;51.578;5.456;2023-07-24T06:39:16;100227.84;;;16.36;100.00
58622;BME280;44389;51.578;5.456;2023-07-24T06:41:41;100235.56;;;16.52;100.00
58622;BME280;44389;51.578;5.456;2023-07-24T06:44:07;100225.16;;;16.58;100.00
58622;BME280;44389;51.578;5.456;2023-07-24T06:46:32;100224.19;;;16.71;100.00
58622;BME280;44389;51.578;5.456;2023-07-24T06:48:57;100232.88;;;16.73;100.00
58622;BME280;44389;51.578;5.456;2023-07-24T06:51:23;100231.19;;;16.63;100.00
58622;BME280;44389;51.578;5.456;2023-07-24T06:53:48;100234.69;;;16.50;100.00
58622;BME280;44389;51.578;5.456;2023-07-24T06:56:13;100225.22;;;16.44;100.00
58622;BME280;44389;51.578;5.456;2023-07-24T06:58:39;100225.19;;;16.45;100.00
58622;BME280;44389;51.578;5.456;2023-07-24T07:01:07;100226.06;;;16.44;100.00
58622;BME280;44389;51.578;5.456;2023-07-24T07:03:32;100225.25;;;16.35;100.00
58622;BME280;44389;51.578;5.456;2023-07-24T07:06:00;100220.94;;;16.29;100.00
58622;BME280;44389;51.578;5.456;2023-07-24T07:08:26;100227.00;;;16.28;100.00
58622;BME280;44389;51.578;5.456;2023-07-24T07:10:58;100224.44;;;16.19;100.00
58622;BME280;44389;51.578;5.456;2023-07-24T07:13:23;100231.38;;;16.12;100.00
58622;BME280;44389;51.578;5.456;2023-07-24T07:15:49;100228.78;;;16.18;100.00
58622;BME280;44389;51.578;5.456;2023-07-24T07:18:14;100224.47;;;16.09;100.00
58622;BME280;44389;51.578;5.456;2023-07-24T07:20:48;100230.53;;;16.11;100.00
58622;BME280;44389;51.578;5.456;2023-07-24T07:23:14;100226.19;;;16.17;100.00
58622;BME280;44389;51.578;5.456;2023-07-24T07:25:39;100224.47;;;16.09;100.00
58622;BME280;44389;51.578;5.456;2023-07-24T07:28:05;100221.84;;;16.11;100.00
58622;BME280;44389;51.578;5.456;2023-07-24T07:30:30;100224.50;;;16.02;100.00
58622;BME280;44389;51.578;5.456;2023-07-24T07:32:55;100221.88;;;16.02;100.00
58622;BME280;44389;51.578;5.456;2023-07-24T07:35:21;100221.03;;;16.01;100.00
58622;BME280;44389;51.578;5.456;2023-07-24T07:37:46;100227.94;;;16.13;100.00
58622;BME280;44389;51.578;5.456;2023-07-24T07:40:11;100229.63;;;16.12;100.00
58622;BME280;44389;51.578;5.456;2023-07-24T07:42:37;100226.22;;;16.04;100.00
58622;BME280;44389;51.578;5.456;2023-07-24T07:45:03;100227.91;;;16.15;100.00
58622;BME280;44389;51.578;5.456;2023-07-24T07:47:28;100227.00;;;16.20;100.00
58622;BME280;44389;51.578;5.456;2023-07-24T07:49:53;100224.38;;;16.34;100.00
58622;BME280;44389;51.578;5.456;2023-07-24T07:52:19;100222.53;;;16.58;100.00
58622;BME280;44389;51.578;5.456;2023-07-24T07:54:47;100219.00;;;16.67;100.00
58622;BME280;44389;51.578;5.456;2023-07-24T07:57:13;100218.13;;;16.69;100.00
58622;BME280;44389;51.578;5.456;2023-07-24T07:59:38;100209.41;;;16.81;100.00
58622;BME280;44389;51.578;5.456;2023-07-24T08:02:04;100214.59;;;16.79;100.00
58622;BME280;44389;51.578;5.456;2023-07-24T08:04:29;100215.50;;;16.78;100.00
58622;BME280;44389;51.578;5.456;2023-07-24T08:06:54;100229.31;;;16.87;100.00
58622;BME280;44389;51.578;5.456;2023-07-24T08:09:20;100227.50;;;17.04;100.00
58622;BME280;44389;51.578;5.456;2023-07-24T08:11:47;100220.41;;;17.22;100.00
58622;BME280;44389;51.578;5.456;2023-07-24T08:14:12;100230.06;;;17.12;100.00
58622;BME280;44389;51.578;5.456;2023-07-24T08:16:38;100237.88;;;17.12;100.00
58622;BME280;44389;51.578;5.456;2023-07-24T08:19:03;100242.16;;;17.18;100.00
58622;BME280;44389;51.578;5.456;2023-07-24T08:21:28;100231.44;;;17.55;100.00
58622;BME280;44389;51.578;5.456;2023-07-24T08:23:54;100236.56;;;17.64;100.00
58622;BME280;44389;51.578;5.456;2023-07-24T08:26:19;100223.53;;;17.64;100.00
58622;BME280;44389;51.578;5.456;2023-07-24T08:28:44;100222.41;;;17.90;100.00
58622;BME280;44389;51.578;5.456;2023-07-24T08:31:10;100218.78;;;18.05;100.00
58622;BME280;44389;51.578;5.456;2023-07-24T08:33:36;100211.59;;;18.24;100.00
58622;BME280;44389;51.578;5.456;2023-07-24T08:36:03;100227.34;;;18.16;100.00
58622;BME280;44389;51.578;5.456;2023-07-24T08:38:29;100224.75;;;18.15;100.00
58622;BME280;44389;51.578;5.456;2023-07-24T08:41:11;100224.97;;;17.96;100.00
58622;BME280;44389;51.578;5.456;2023-07-24T08:43:39;100224.22;;;17.82;100.00
58622;BME280;44389;51.578;5.456;2023-07-24T08:46:05;100220.13;;;17.57;100.00
58622;BME280;44389;51.578;5.456;2023-07-24T08:48:33;100220.19;;;17.47;100.00
58622;BME280;44389;51.578;5.456;2023-07-24T08:51:05;100218.50;;;17.42;100.00
58622;BME280;44389;51.578;5.456;2023-07-24T08:53:33;100221.97;;;17.41;100.00
58622;BME280;44389;51.578;5.456;2023-07-24T08:56:04;100219.41;;;17.40;100.00
58622;BME280;44389;51.578;5.456;2023-07-24T08:58:30;100222.81;;;17.47;100.00
58622;BME280;44389;51.578;5.456;2023-07-24T09:00:57;100214.31;;;17.27;100.00
58622;BME280;44389;51.578;5.456;2023-07-24T09:03:22;100210.88;;;17.22;100.00
58622;BME280;44389;51.578;5.456;2023-07-24T09:05:48;100202.19;;;17.25;100.00
58622;BME280;44389;51.578;5.456;2023-07-24T09:08:13;100207.09;;;17.54;100.00
58622;BME280;44389;51.578;5.456;2023-07-24T09:10:39;100206.13;;;17.66;100.00
58622;BME280;44389;51.578;5.456;2023-07-24T09:13:04;100199.88;;;17.83;100.00
58622;BME280;44389;51.578;5.456;2023-07-24T09:15:42;100185.72;;;18.08;100.00
58622;BME280;44389;51.578;5.456;2023-07-24T09:18:08;100187.44;;;18.09;100.00
58622;BME280;44389;51.578;5.456;2023-07-24T09:20:41;100185.44;;;18.30;100.00
58622;BME280;44389;51.578;5.456;2023-07-24T09:23:07;100186.75;;;18.64;100.00
58622;BME280;44389;51.578;5.456;2023-07-24T09:25:35;100177.13;;;19.23;100.00
58622;BME280;44389;51.578;5.456;2023-07-24T09:28:01;100170.47;;;19.05;100.00
58622;BME280;44389;51.578;5.456;2023-07-24T09:30:33;100174.19;;;18.90;100.00
58622;BME280;44389;51.578;5.456;2023-07-24T09:32:58;100176.06;;;18.79;100.00
58622;BME280;44389;51.578;5.456;2023-07-24T09:35:24;100167.44;;;18.74;100.00
58622;BME280;44389;51.578;5.456;2023-07-24T09:38:02;100161.63;;;18.55;100.00
58622;BME280;44389;51.578;5.456;2023-07-24T09:40:27;100157.28;;;18.55;100.00
58622;BME280;44389;51.578;5.456;2023-07-24T09:42:52;100153.97;;;18.44;100.00
58622;BME280;44389;51.578;5.456;2023-07-24T09:45:18;100156.69;;;18.36;100.00
58622;BME280;44389;51.578;5.456;2023-07-24T09:47:44;100141.06;;;18.33;100.00
58622;BME280;44389;51.578;5.456;2023-07-24T09:50:10;100135.00;;;18.31;100.00
58622;BME280;44389;51.578;5.456;2023-07-24T09:52:36;100135.06;;;18.26;100.00
58622;BME280;44389;51.578;5.456;2023-07-24T09:55:46;100127.38;;;18.16;100.00
58622;BME280;44389;51.578;5.456;2023-07-24T09:57:51;100137.63;;;18.28;100.00
58622;BME280;44389;51.578;5.456;2023-07-24T10:00:18;100131.00;;;18.05;100.00
58622;BME280;44389;51.578;5.456;2023-07-24T10:02:44;100131.94;;;18.00;100.00
58622;BME280;44389;51.578;5.456;2023-07-24T10:05:10;100125.84;;;17.99;100.00
58622;BME280;44389;51.578;5.456;2023-07-24T10:07:37;100123.22;;;18.01;100.00
58622;BME280;44389;51.578;5.456;2023-07-24T10:10:02;100119.84;;;17.91;100.00
58622;BME280;44389;51.578;5.456;2023-07-24T10:12:29;100134.72;;;17.83;100.00
58622;BME280;44389;51.578;5.456;2023-07-24T10:14:55;100137.91;;;18.09;100.00
58622;BME280;44389;51.578;5.456;2023-07-24T10:17:34;100140.81;;;17.83;100.00
58622;BME280;44389;51.578;5.456;2023-07-24T10:20:08;100146.09;;;17.74;100.00
58622;BME280;44389;51.578;5.456;2023-07-24T10:22:34;100144.44;;;17.68;100.00
58622;BME280;44389;51.578;5.456;2023-07-24T10:25:00;100141.06;;;17.60;100.00
58622;BME280;44389;51.578;5.456;2023-07-24T10:27:26;100156.72;;;17.55;100.00
58622;BME280;44389;51.578;5.456;2023-07-24T10:30:04;100165.44;;;17.53;100.00
58622;BME280;44389;51.578;5.456;2023-07-24T10:32:30;100169.06;;;17.38;100.00
58622;BME280;44389;51.578;5.456;2023-07-24T10:35:08;100170.03;;;17.29;100.00
58622;BME280;44389;51.578;5.456;2023-07-24T10:37:35;100170.09;;;17.17;100.00
58622;BME280;44389;51.578;5.456;2023-07-24T10:40:02;100164.06;;;17.13;100.00
58622;BME280;44389;51.578;5.456;2023-07-24T10:42:28;100157.16;;;17.09;100.00
58622;BME280;44389;51.578;5.456;2023-07-24T10:45:05;100151.84;;;17.23;100.00
58622;BME280;44389;51.578;5.456;2023-07-24T10:47:31;100156.00;;;17.42;100.00
58622;BME280;44389;51.578;5.456;2023-07-24T10:49:59;100171.44;;;17.61;100.00
58622;BME280;44389;51.578;5.456;2023-07-24T10:52:31;100181.66;;;17.80;100.00
58622;BME280;44389;51.578;5.456;2023-07-24T10:55:00;100175.13;;;18.21;100.00
58622;BME280;44389;51.578;5.456;2023-07-24T10:57:27;100180.22;;;18.32;100.00
58622;BME280;44389;51.578;5.456;2023-07-24T10:59:53;100186.38;;;18.26;100.00
58622;BME280;44389;51.578;5.456;2023-07-24T11:02:18;100179.28;;;18.37;100.00
58622;BME280;44389;51.578;5.456;2023-07-24T11:04:44;100183.56;;;18.41;100.00
58622;BME280;44389;51.578;5.456;2023-07-24T11:07:09;100187.09;;;18.37;100.00
58622;BME280;44389;51.578;5.456;2023-07-24T11:09:39;100187.31;;;18.20;100.00
58622;BME280;44389;51.578;5.456;2023-07-24T11:12:13;100180.25;;;18.29;100.00
58622;BME280;44389;51.578;5.456;2023-07-24T11:14:53;100181.81;;;18.42;100.00
58622;BME280;44389;51.578;5.456;2023-07-24T11:17:33;100176.72;;;18.33;100.00
58622;BME280;44389;51.578;5.456;2023-07-24T11:20:07;100173.28;;;18.29;100.00
58622;BME280;44389;51.578;5.456;2023-07-24T11:22:33;100184.69;;;18.22;100.00
58622;BME280;44389;51.578;5.456;2023-07-24T11:24:59;100181.28;;;18.15;100.00
58622;BME280;44389;51.578;5.456;2023-07-24T11:27:26;100176.94;;;18.16;100.00
58622;BME280;44389;51.578;5.456;2023-07-24T11:29:51;100164.63;;;18.27;100.00
58622;BME280;44389;51.578;5.456;2023-07-24T11:32:18;100174.06;;;18.36;100.00
58622;BME280;44389;51.578;5.456;2023-07-24T11:34:44;100169.44;;;18.56;100.00
58622;BME280;44389;51.578;5.456;2023-07-24T11:37:10;100178.06;;;18.63;100.00
58622;BME280;44389;51.578;5.456;2023-07-24T11:39:35;100181.22;;;18.82;100.00
58622;BME280;44389;51.578;5.456;2023-07-24T11:42:01;100183.59;;;19.02;100.00
58622;BME280;44389;51.578;5.456;2023-07-24T11:44:27;100182.97;;;19.39;100.00
58622;BME280;44389;51.578;5.456;2023-07-24T11:47:13;100176.41;;;19.65;100.00
58622;BME280;44389;51.578;5.456;2023-07-24T11:49:39;100173.53;;;20.64;100.00
58622;BME280;44389;51.578;5.456;2023-07-24T11:52:10;100166.75;;;21.63;97.69
58622;BME280;44389;51.578;5.456;2023-07-24T11:54:35;100173.78;;;21.94;94.84
58622;BME280;44389;51.578;5.456;2023-07-24T11:57:01;100162.50;;;21.59;93.22
58622;BME280;44389;51.578;5.456;2023-07-24T11:59:27;100153.66;;;20.94;91.43
58622;BME280;44389;51.578;5.456;2023-07-24T12:01:52;100163.38;;;20.89;94.84
58622;BME280;44389;51.578;5.456;2023-07-24T12:04:18;100157.28;;;20.88;94.93
58622;BME280;44389;51.578;5.456;2023-07-24T12:06:44;100154.72;;;20.85;95.75
58622;BME280;44389;51.578;5.456;2023-07-24T12:09:10;100155.66;;;20.83;94.68
58622;BME280;44389;51.578;5.456;2023-07-24T12:11:40;100158.09;;;20.91;95.27
58622;BME280;44389;51.578;5.456;2023-07-24T12:14:06;100142.25;;;20.95;91.53
58622;BME280;44389;51.578;5.456;2023-07-24T12:16:34;100139.59;;;21.31;94.17
58622;BME280;44389;51.578;5.456;2023-07-24T12:18:59;100145.97;;;21.56;93.16
58622;BME280;44389;51.578;5.456;2023-07-24T12:21:25;100141.53;;;21.59;89.56
58622;BME280;44389;51.578;5.456;2023-07-24T12:23:50;100140.41;;;21.99;88.14
58622;BME280;44389;51.578;5.456;2023-07-24T12:26:15;100136.66;;;22.66;84.87
58622;BME280;44389;51.578;5.456;2023-07-24T12:28:40;100133.44;;;23.62;82.37
58622;BME280;44389;51.578;5.456;2023-07-24T12:31:06;100144.34;;;23.26;78.13
58622;BME280;44389;51.578;5.456;2023-07-24T12:33:31;100137.88;;;22.83;81.54
58622;BME280;44389;51.578;5.456;2023-07-24T12:35:57;100141.97;;;22.36;81.09
58622;BME280;44389;51.578;5.456;2023-07-24T12:38:22;100134.41;;;21.94;85.54
58622;BME280;44389;51.578;5.456;2023-07-24T12:40:47;100133.91;;;21.81;90.29